createdAt,value
2018-05-11T00:01:13.105Z,3.20
2018-05-11T00:03:41.379Z,2.77
2018-05-11T00:06:09.660Z,3.07
2018-05-11T00:08:37.941Z,2.97
2018-05-11T00:11:06.220Z,2.70
2018-05-11T00:13:34.473Z,2.80
2018-05-11T00:16:03.491Z,2.87
2018-05-11T00:18:31.757Z,3.53
2018-05-11T00:21:00.000Z,3.00
2018-05-11T00:23:29.044Z,3.40
2018-05-11T00:25:57.293Z,3.83
2018-05-11T00:28:25.545Z,3.23
2018-05-11T00:30:54.575Z,3.10
2018-05-11T00:33:22.840Z,3.03
2018-05-11T00:35:51.109Z,3.57
2018-05-11T00:38:20.226Z,3.60
2018-05-11T00:40:48.489Z,3.70
2018-05-11T00:43:16.775Z,3.60
2018-05-11T00:45:45.036Z,3.73
2018-05-11T00:48:13.301Z,3.20
2018-05-11T00:50:42.423Z,2.80
2018-05-11T00:53:10.707Z,3.10
2018-05-11T00:55:49.785Z,3.53
2018-05-11T00:58:18.108Z,3.40
2018-05-11T01:00:46.372Z,2.87
2018-05-11T01:03:14.644Z,3.50
2018-05-11T01:05:42.944Z,3.07
2018-05-11T01:08:11.208Z,2.90
2018-05-11T01:10:39.528Z,3.93
2018-05-11T01:13:07.864Z,3.03
2018-05-11T01:15:36.140Z,3.30
2018-05-11T01:18:04.418Z,3.10
2018-05-11T01:20:32.676Z,3.50
2018-05-11T01:23:01.716Z,3.23
2018-05-11T01:25:30.002Z,3.53
2018-05-11T01:27:58.260Z,3.27
2018-05-11T01:30:26.504Z,3.20
2018-05-11T01:32:54.786Z,3.00
2018-05-11T01:35:23.033Z,3.20
2018-05-11T01:37:51.373Z,2.73
2018-05-11T01:40:19.656Z,3.20
2018-05-11T01:42:47.989Z,3.50
2018-05-11T01:45:16.241Z,3.00
2018-05-11T01:47:44.505Z,3.30
2018-05-11T01:50:12.765Z,2.77
2018-05-11T01:52:41.027Z,3.37
2018-05-11T01:55:09.280Z,3.07
2018-05-11T01:57:37.554Z,3.50
2018-05-11T02:00:05.802Z,3.50
2018-05-11T02:02:34.838Z,3.00
2018-05-11T02:05:03.084Z,3.47
2018-05-11T02:07:32.113Z,3.03
2018-05-11T02:10:00.396Z,4.43
2018-05-11T02:12:28.640Z,3.50
2018-05-11T02:14:56.916Z,2.93
2018-05-11T02:17:25.186Z,3.53
2018-05-11T02:19:54.189Z,3.83
2018-05-11T02:22:22.424Z,3.03
2018-05-11T02:24:50.680Z,3.40
2018-05-11T02:27:18.920Z,3.90
2018-05-11T02:29:47.169Z,3.70
2018-05-11T02:32:16.198Z,3.57
2018-05-11T02:34:44.454Z,3.97
2018-05-11T02:37:12.696Z,4.00
2018-05-11T02:39:40.969Z,3.43
2018-05-11T02:42:09.221Z,3.50
2018-05-11T02:44:37.486Z,4.07
2018-05-11T02:47:05.746Z,4.33
2018-05-11T02:49:33.994Z,4.20
2018-05-11T02:52:03.001Z,4.07
2018-05-11T02:54:31.261Z,4.53
2018-05-11T02:57:00.267Z,4.60
2018-05-11T02:59:29.298Z,3.57
2018-05-11T03:01:57.645Z,4.23
2018-05-11T03:04:25.909Z,3.50
2018-05-11T03:06:54.909Z,3.87
2018-05-11T03:09:23.171Z,3.80
2018-05-11T03:11:52.192Z,4.23
2018-05-11T03:14:20.438Z,3.80
2018-05-11T03:16:48.732Z,4.03
2018-05-11T03:19:18.011Z,3.60
2018-05-11T03:21:46.322Z,3.90
2018-05-11T03:24:14.579Z,3.10
2018-05-11T03:26:43.589Z,4.20
2018-05-11T03:29:11.839Z,3.60
2018-05-11T03:31:40.862Z,4.20
2018-05-11T03:34:09.109Z,3.73
2018-05-11T03:36:38.108Z,4.37
2018-05-11T03:39:07.168Z,3.80
2018-05-11T03:41:35.423Z,4.30
2018-05-11T03:44:03.666Z,4.80
2018-05-11T03:46:31.931Z,4.27
2018-05-11T03:49:01.055Z,4.07
2018-05-11T03:51:29.288Z,4.50
2018-05-11T03:53:57.633Z,4.25
2018-05-11T03:56:25.971Z,4.40
2018-05-11T03:58:54.288Z,3.90
2018-05-11T04:01:40.315Z,4.00
2018-05-11T04:04:26.245Z,4.05
2018-05-11T04:07:13.244Z,4.00
2018-05-11T04:09:41.490Z,4.03
2018-05-11T04:12:09.801Z,4.00
2018-05-11T04:14:38.064Z,3.60
2018-05-11T04:17:07.068Z,4.03
2018-05-11T04:19:35.313Z,3.80
2018-05-11T04:22:03.579Z,3.67
2018-05-11T04:24:31.821Z,4.00
2018-05-11T04:27:00.077Z,4.37
2018-05-11T04:29:28.348Z,3.80
2018-05-11T04:31:56.595Z,4.57
2018-05-11T04:34:24.836Z,3.80
2018-05-11T04:36:53.116Z,3.50
2018-05-11T04:39:21.357Z,3.63
2018-05-11T04:41:49.597Z,4.10
2018-05-11T04:44:18.638Z,4.18
2018-05-11T04:46:47.056Z,3.50
2018-05-11T04:49:15.305Z,3.30
2018-05-11T04:51:43.603Z,3.13
2018-05-11T04:54:11.885Z,4.00
2018-05-11T04:56:40.125Z,4.50
2018-05-11T04:59:08.380Z,4.80
2018-05-11T05:01:36.617Z,4.40
2018-05-11T05:04:04.872Z,3.73
2018-05-11T05:06:33.129Z,4.10
2018-05-11T05:09:01.377Z,4.60
2018-05-11T05:11:30.408Z,4.53
2018-05-11T05:13:58.676Z,4.70
2018-05-11T05:16:26.914Z,5.07
2018-05-11T05:18:55.921Z,4.73
2018-05-11T05:21:24.176Z,4.97
2018-05-11T05:23:54.085Z,5.00
2018-05-11T05:26:22.328Z,5.30
2018-05-11T05:28:50.594Z,4.37
2018-05-11T05:31:18.836Z,4.80
2018-05-11T05:33:47.100Z,4.83
2018-05-11T05:36:19.205Z,4.10
2018-05-11T05:38:47.461Z,4.20
2018-05-11T05:41:15.721Z,5.10
2018-05-11T05:43:44.753Z,3.95
2018-05-11T05:46:13.001Z,3.93
2018-05-11T05:48:41.255Z,3.80
2018-05-11T05:51:09.538Z,4.20
2018-05-11T05:53:38.561Z,4.77
2018-05-11T05:56:06.817Z,4.23
2018-05-11T05:58:35.892Z,4.20
2018-05-11T06:01:04.096Z,4.20
2018-05-11T06:03:32.353Z,3.70
2018-05-11T06:06:01.381Z,4.60
2018-05-11T06:08:29.637Z,5.43
2018-05-11T06:10:58.653Z,6.17
2018-05-11T06:13:26.916Z,4.50
2018-05-11T06:15:55.185Z,4.80
2018-05-11T06:18:24.193Z,4.60
2018-05-11T06:20:52.456Z,5.20
2018-05-11T06:23:20.746Z,4.90
2018-05-11T06:25:48.983Z,5.17
2018-05-11T06:28:18.018Z,5.30
2018-05-11T06:30:46.273Z,4.83
2018-05-11T06:33:14.532Z,4.03
2018-05-11T06:35:43.562Z,4.93
2018-05-11T06:38:11.824Z,4.10
2018-05-11T06:40:40.161Z,4.83
2018-05-11T06:43:09.112Z,4.47
2018-05-11T06:45:37.378Z,4.43
2018-05-11T06:48:05.629Z,4.37
2018-05-11T06:50:34.654Z,4.53
2018-05-11T06:53:02.905Z,5.10
2018-05-11T06:55:31.925Z,4.80
2018-05-11T06:58:00.185Z,4.60
2018-05-11T07:00:28.432Z,4.93
2018-05-11T07:02:56.684Z,4.83
2018-05-11T07:05:24.957Z,5.03
2018-05-11T07:07:53.205Z,4.57
2018-05-11T07:10:21.457Z,5.40
2018-05-11T07:12:49.724Z,4.93
2018-05-11T07:15:18.736Z,5.50
2018-05-11T07:17:46.990Z,4.40
2018-05-11T07:20:16.103Z,5.87
2018-05-11T07:22:44.416Z,4.97
2018-05-11T07:25:13.428Z,3.90
2018-05-11T07:27:41.701Z,4.77
2018-05-11T07:30:09.947Z,4.23
2018-05-11T07:32:38.201Z,4.00
2018-05-11T07:35:06.485Z,5.13
2018-05-11T07:37:34.732Z,5.03
2018-05-11T07:40:03.750Z,5.03
2018-05-11T07:42:32.013Z,6.37
2018-05-11T07:45:01.027Z,6.10
2018-05-11T07:47:29.302Z,4.40
2018-05-11T07:49:57.563Z,4.67
2018-05-11T07:52:25.817Z,4.57
2018-05-11T07:54:54.841Z,4.23
2018-05-11T07:57:23.111Z,4.70
2018-05-11T07:59:52.123Z,4.43
2018-05-11T08:02:20.365Z,4.13
2018-05-11T08:04:49.400Z,4.70
2018-05-11T08:07:17.673Z,5.77
2018-05-11T08:09:45.929Z,5.00
2018-05-11T08:12:14.193Z,3.77
2018-05-11T08:14:43.209Z,4.30
2018-05-11T08:17:11.457Z,4.60
2018-05-11T08:19:40.482Z,4.97
2018-05-11T08:22:08.730Z,4.47
2018-05-11T08:24:37.741Z,4.47
2018-05-11T08:27:06.000Z,4.00
2018-05-11T08:29:35.022Z,4.77
2018-05-11T08:32:03.277Z,4.20
2018-05-11T08:34:32.308Z,3.33
2018-05-11T08:37:00.557Z,3.33
2018-05-11T08:39:28.821Z,3.33
2018-05-11T08:41:57.852Z,4.50
2018-05-11T08:44:26.106Z,3.73
2018-05-11T08:46:54.374Z,3.80
2018-05-11T08:49:23.398Z,4.00
2018-05-11T08:51:51.673Z,3.70
2018-05-11T08:54:19.925Z,4.17
2018-05-11T08:56:48.237Z,3.67
2018-05-11T08:59:16.484Z,4.30
2018-05-11T09:01:44.734Z,3.70
2018-05-11T09:04:13.764Z,3.90
2018-05-11T09:06:42.009Z,3.23
2018-05-11T09:09:11.041Z,3.50
2018-05-11T09:11:39.307Z,3.43
2018-05-11T09:14:07.549Z,2.90
2018-05-11T09:16:36.565Z,3.00
2018-05-11T09:19:04.835Z,3.17
2018-05-11T09:21:33.090Z,3.30
2018-05-11T09:24:02.108Z,3.50
2018-05-11T09:26:30.388Z,3.77
2018-05-11T09:28:58.634Z,3.50
2018-05-11T09:31:27.680Z,3.33
2018-05-11T09:33:55.958Z,3.23
2018-05-11T09:36:24.205Z,3.63
2018-05-11T09:38:52.491Z,2.90
2018-05-11T09:41:20.748Z,3.50
2018-05-11T09:43:49.016Z,3.70
2018-05-11T09:46:18.033Z,3.47
2018-05-11T09:48:46.314Z,3.20
2018-05-11T09:51:14.556Z,3.57
2018-05-11T09:53:43.578Z,2.57
2018-05-11T09:56:11.845Z,4.03
2018-05-11T09:58:40.096Z,2.85
2018-05-11T10:01:09.109Z,3.03
2018-05-11T10:03:37.389Z,3.53
2018-05-11T10:06:05.649Z,3.10
2018-05-11T10:08:34.664Z,3.23
2018-05-11T10:11:02.928Z,2.70
2018-05-11T10:13:31.189Z,3.80
2018-05-11T10:16:00.213Z,2.43
2018-05-11T10:18:28.476Z,3.57
2018-05-11T10:20:57.643Z,3.20
2018-05-11T10:23:25.759Z,2.60
2018-05-11T10:25:54.031Z,2.20
2018-05-11T10:28:22.281Z,3.27
2018-05-11T10:30:51.289Z,3.03
2018-05-11T10:33:20.329Z,2.53
2018-05-11T10:35:48.593Z,1.90
2018-05-11T10:38:16.846Z,2.70
2018-05-11T10:40:45.121Z,2.37
2018-05-11T10:43:13.378Z,1.80
2018-05-11T10:45:42.412Z,2.20
2018-05-11T10:48:10.685Z,1.93
2018-05-11T10:50:38.950Z,2.77
2018-05-11T10:53:07.229Z,2.37
2018-05-11T10:55:35.510Z,2.10
2018-05-11T10:58:03.762Z,2.63
2018-05-11T11:00:32.879Z,2.50
2018-05-11T11:03:01.155Z,2.00
2018-05-11T11:05:29.426Z,2.23
2018-05-11T11:07:57.682Z,2.50
2018-05-11T11:10:26.799Z,1.63
2018-05-11T11:12:55.047Z,2.70
2018-05-11T11:15:24.064Z,2.10
2018-05-11T11:17:52.400Z,2.17
2018-05-11T11:20:21.437Z,1.83
2018-05-11T11:22:49.689Z,2.20
2018-05-11T11:25:18.750Z,1.90
2018-05-11T11:27:47.091Z,2.30
2018-05-11T11:30:15.336Z,1.53
2018-05-11T11:32:44.369Z,2.00
2018-05-11T11:35:12.664Z,1.10
2018-05-11T11:37:41.005Z,1.90
2018-05-11T11:40:09.275Z,1.93
2018-05-11T11:42:38.305Z,1.80
2018-05-11T11:45:06.661Z,2.17
2018-05-11T11:47:35.001Z,1.83
2018-05-11T11:50:03.189Z,1.90
2018-05-11T11:52:32.202Z,2.00
2018-05-11T11:55:00.482Z,2.00
2018-05-11T11:57:28.760Z,1.63
2018-05-11T11:59:57.020Z,1.63
2018-05-11T12:02:26.053Z,2.13
2018-05-11T12:04:54.308Z,1.80
2018-05-11T12:07:22.585Z,1.60
2018-05-11T12:09:50.949Z,2.00
2018-05-11T12:12:19.237Z,2.00
2018-05-11T12:14:47.504Z,1.80
2018-05-11T12:17:15.777Z,1.90
2018-05-11T12:19:44.050Z,2.00
2018-05-11T12:22:13.062Z,1.80
2018-05-11T12:24:41.433Z,1.70
2018-05-11T12:27:09.722Z,2.67
2018-05-11T12:29:37.982Z,1.90
2018-05-11T12:32:06.257Z,1.93
2018-05-11T12:34:34.512Z,1.93
2018-05-11T12:37:03.647Z,1.60
2018-05-11T12:39:32.012Z,2.00
2018-05-11T12:42:00.301Z,1.30
2018-05-11T12:44:28.566Z,2.40
2018-05-11T12:46:56.844Z,1.70
2018-05-11T12:49:25.091Z,2.10
2018-05-11T12:51:54.102Z,1.77
2018-05-11T12:54:23.141Z,1.80
2018-05-11T12:56:51.481Z,1.60
2018-05-11T12:59:19.759Z,1.60
2018-05-11T13:01:48.022Z,1.77
2018-05-11T13:04:17.144Z,2.13
2018-05-11T13:06:45.384Z,1.70
2018-05-11T13:09:14.422Z,1.50
2018-05-11T13:11:42.685Z,1.50
2018-05-11T13:14:10.937Z,2.00
2018-05-11T13:16:39.977Z,1.70
2018-05-11T13:19:08.235Z,2.00
2018-05-11T13:21:36.497Z,1.83
2018-05-11T13:24:04.760Z,1.53
2018-05-11T13:26:33.876Z,1.40
2018-05-11T13:29:02.120Z,1.83
2018-05-11T13:31:31.173Z,1.60
2018-05-11T13:33:59.432Z,1.70
2018-05-11T13:36:27.720Z,1.40
2018-05-11T13:38:55.969Z,1.30
2018-05-11T13:41:24.248Z,1.37
2018-05-11T13:43:52.513Z,1.83
2018-05-11T13:46:20.785Z,1.60
2018-05-11T13:48:49.802Z,1.80
2018-05-11T13:51:18.060Z,1.90
2018-05-11T13:53:46.321Z,1.53
2018-05-11T13:56:15.504Z,1.17
2018-05-11T13:58:43.712Z,1.20
2018-05-11T14:01:12.009Z,1.03
2018-05-11T14:03:40.263Z,1.70
2018-05-11T14:06:08.542Z,1.47
2018-05-11T14:08:36.821Z,1.30
2018-05-11T14:11:05.093Z,2.00
2018-05-11T14:13:33.349Z,1.27
2018-05-11T14:16:02.408Z,1.10
2018-05-11T14:18:30.661Z,1.37
2018-05-11T14:20:58.916Z,1.17
2018-05-11T14:23:27.188Z,1.67
2018-05-11T14:25:55.457Z,1.30
2018-05-11T14:28:24.513Z,1.27
2018-05-11T14:30:52.781Z,1.70
2018-05-11T14:33:21.738Z,1.33
2018-05-11T14:35:50.024Z,1.27
2018-05-11T14:38:18.276Z,1.10
2018-05-11T14:40:46.525Z,1.53
2018-05-11T14:43:14.780Z,1.75
2018-05-11T14:45:43.118Z,1.27
2018-05-11T14:48:11.372Z,1.50
2018-05-11T14:50:40.489Z,1.27
2018-05-11T14:53:08.769Z,1.60
2018-05-11T14:55:37.041Z,1.07
2018-05-11T14:58:05.325Z,0.97
2018-05-11T15:00:33.594Z,1.40
2018-05-11T15:03:01.865Z,1.27
2018-05-11T15:05:30.145Z,1.80
2018-05-11T15:07:58.436Z,0.93
2018-05-11T15:10:26.682Z,1.43
2018-05-11T15:12:55.699Z,1.23
2018-05-11T15:15:24.025Z,1.37
2018-05-11T15:17:52.217Z,1.33
2018-05-11T15:20:21.242Z,1.27
2018-05-11T15:22:49.616Z,1.10
2018-05-11T15:25:17.897Z,1.13
2018-05-11T15:27:46.171Z,1.13
2018-05-11T15:30:14.470Z,1.40
2018-05-11T15:32:42.725Z,1.20
2018-05-11T15:35:10.984Z,1.10
2018-05-11T15:37:39.253Z,0.70
2018-05-11T15:40:08.274Z,1.37
2018-05-11T15:42:36.549Z,1.10
2018-05-11T15:45:04.829Z,1.33
2018-05-11T15:47:33.105Z,1.20
2018-05-11T15:50:01.373Z,1.03
2018-05-11T15:52:29.659Z,1.20
2018-05-11T15:54:57.915Z,1.50
2018-05-11T15:57:27.026Z,1.30
2018-05-11T15:59:55.317Z,1.10
2018-05-11T16:02:23.571Z,1.33
2018-05-11T16:04:51.824Z,1.10
2018-05-11T16:07:20.849Z,1.60
2018-05-11T16:09:49.113Z,1.60
2018-05-11T16:12:17.368Z,1.70
2018-05-11T16:14:46.397Z,1.50
2018-05-11T16:17:14.646Z,1.27
2018-05-11T16:19:43.665Z,1.30
2018-05-11T16:22:11.931Z,1.13
2018-05-11T16:24:40.193Z,2.33
2018-05-11T16:27:09.209Z,1.40
2018-05-11T16:29:37.519Z,1.53
2018-05-11T16:32:05.785Z,1.53
2018-05-11T16:34:34.034Z,1.50
2018-05-11T16:37:02.305Z,1.10
2018-05-11T16:39:30.588Z,1.30
2018-05-11T16:41:59.570Z,1.50
2018-05-11T16:44:27.844Z,1.57
2018-05-11T16:46:56.103Z,1.70
2018-05-11T16:49:24.348Z,1.40
2018-05-11T16:51:52.621Z,1.70
2018-05-11T16:54:20.867Z,1.30
2018-05-11T16:56:49.340Z,1.70
2018-05-11T16:59:17.606Z,1.37
2018-05-11T17:01:45.858Z,1.47
2018-05-11T17:04:14.176Z,1.87
2018-05-11T17:06:42.541Z,1.40
2018-05-11T17:09:10.790Z,1.60
2018-05-11T17:11:39.805Z,1.70
2018-05-11T17:14:08.095Z,1.40
2018-05-11T17:16:36.362Z,1.60
2018-05-11T17:19:04.614Z,1.47
2018-05-11T17:21:33.647Z,1.73
2018-05-11T17:24:01.934Z,2.03
2018-05-11T17:26:30.175Z,1.60
2018-05-11T17:28:59.244Z,1.83
2018-05-11T17:31:28.324Z,3.30
2018-05-11T17:33:57.413Z,2.60
2018-05-11T17:36:25.763Z,1.40
2018-05-11T17:38:54.095Z,2.60
2018-05-11T17:41:23.199Z,3.43
2018-05-11T17:43:52.281Z,2.97
2018-05-11T17:46:20.602Z,3.80
2018-05-11T17:48:48.912Z,2.20
2018-05-11T17:51:17.249Z,2.43
2018-05-11T17:53:45.572Z,1.60
2018-05-11T17:56:13.896Z,3.27
2018-05-11T17:58:42.218Z,3.27
2018-05-11T18:01:10.525Z,3.53
2018-05-11T18:03:39.609Z,6.90
2018-05-11T18:06:08.706Z,2.27
2018-05-11T18:08:36.968Z,2.40
2018-05-11T18:11:05.221Z,2.10
2018-05-11T18:13:33.489Z,3.10
2018-05-11T18:16:01.752Z,4.10
2018-05-11T18:18:30.000Z,2.40
2018-05-11T18:20:59.036Z,3.20
2018-05-11T18:23:27.296Z,2.40
2018-05-11T18:25:55.552Z,1.50
2018-05-11T18:28:24.587Z,1.07
2018-05-11T18:30:52.845Z,1.43
2018-05-11T18:33:21.104Z,1.90
2018-05-11T18:35:50.134Z,1.83
2018-05-11T18:38:18.457Z,1.60
2018-05-11T18:40:47.537Z,1.60
2018-05-11T18:43:15.810Z,1.83
2018-05-11T18:45:44.097Z,1.70
2018-05-11T18:48:12.414Z,2.17
2018-05-11T18:50:40.692Z,2.20
2018-05-11T18:53:09.195Z,2.77
2018-05-11T18:55:37.320Z,2.07
2018-05-11T18:58:06.746Z,2.50
2018-05-11T19:00:35.174Z,3.00
2018-05-11T19:03:03.478Z,2.60
2018-05-11T19:05:31.876Z,2.10
2018-05-11T19:08:00.975Z,2.80
2018-05-11T19:10:29.654Z,3.27
2018-05-11T19:12:58.863Z,2.47
2018-05-11T19:15:28.033Z,2.30
2018-05-11T19:17:57.023Z,1.83
2018-05-11T19:20:25.935Z,2.00
2018-05-11T19:22:55.077Z,1.97
2018-05-11T19:25:24.237Z,1.73
2018-05-11T19:27:54.476Z,1.73
2018-05-11T19:30:25.089Z,1.63
2018-05-11T19:32:54.466Z,1.70
2018-05-11T19:35:24.348Z,3.12
2018-05-11T19:37:53.519Z,1.20
2018-05-11T19:40:23.554Z,1.90
2018-05-11T19:42:52.768Z,1.87
2018-05-11T19:45:21.969Z,2.23
2018-05-11T19:47:51.277Z,1.90
2018-05-11T19:50:20.483Z,2.10
2018-05-11T19:52:50.627Z,1.50
2018-05-11T19:55:19.867Z,2.10
2018-05-11T19:57:49.134Z,1.60
2018-05-11T20:00:18.588Z,1.70
2018-05-11T20:02:47.905Z,1.80
2018-05-11T20:05:17.264Z,2.00
2018-05-11T20:07:46.611Z,1.47
2018-05-11T20:10:16.822Z,1.90
2018-05-11T20:12:46.068Z,1.50
2018-05-11T20:15:16.487Z,1.53
2018-05-11T20:17:45.851Z,1.30
2018-05-11T20:20:15.055Z,1.83
2018-05-11T20:22:44.342Z,1.60
2018-05-11T20:25:13.653Z,1.40
2018-05-11T20:27:42.973Z,1.87
2018-05-11T20:30:13.162Z,1.90
2018-05-11T20:32:43.423Z,1.80
2018-05-11T20:35:14.141Z,1.83
2018-05-11T20:37:43.715Z,1.93
2018-05-11T20:40:16.079Z,1.60
2018-05-11T20:42:46.133Z,1.90
2018-05-11T20:45:16.354Z,2.07
2018-05-11T20:47:46.247Z,1.77
2018-05-11T20:50:16.530Z,2.43
2018-05-11T20:52:47.354Z,1.70
2018-05-11T20:55:18.064Z,1.80
2018-05-11T20:57:47.307Z,2.00
2018-05-11T21:00:17.225Z,2.90
2018-05-11T21:02:46.014Z,2.10
2018-05-11T21:05:14.366Z,2.10
2018-05-11T21:07:43.473Z,2.50
2018-05-11T21:10:11.768Z,3.58
2018-05-11T21:12:40.108Z,2.07
2018-05-11T21:15:08.479Z,2.00
2018-05-11T21:17:36.761Z,2.20
2018-05-11T21:20:05.792Z,1.90
2018-05-11T21:22:34.080Z,1.90
2018-05-11T21:25:02.377Z,1.67
2018-05-11T21:27:30.625Z,1.57
2018-05-11T21:29:58.920Z,2.00
2018-05-11T21:32:27.207Z,1.90
2018-05-11T21:37:30.076Z,3.75
2018-05-11T21:39:58.327Z,2.10
2018-05-11T21:42:27.363Z,2.50
2018-05-11T21:44:55.633Z,1.77
2018-05-11T21:47:23.880Z,2.00
2018-05-11T21:49:52.173Z,1.83
2018-05-11T21:52:20.472Z,1.77
2018-05-11T21:54:48.742Z,2.20
2018-05-11T21:57:17.010Z,2.17
2018-05-11T21:59:45.262Z,1.90
2018-05-11T22:02:13.580Z,1.87
2018-05-11T22:04:41.836Z,2.50
2018-05-11T22:07:10.113Z,2.00
2018-05-11T22:09:38.379Z,1.70
2018-05-11T22:12:06.640Z,2.10
2018-05-11T22:14:34.933Z,1.63
2018-05-11T22:17:03.213Z,2.63
2018-05-11T22:19:31.508Z,2.27
2018-05-11T22:21:59.757Z,2.50
2018-05-11T22:24:28.066Z,2.10
2018-05-11T22:26:56.328Z,2.67
2018-05-11T22:29:25.305Z,2.50
2018-05-11T22:31:53.569Z,3.70
2018-05-11T22:34:21.879Z,2.50
2018-05-11T22:36:50.140Z,2.77
2018-05-11T22:39:18.397Z,2.33
2018-05-11T22:41:46.654Z,2.40
2018-05-11T22:44:15.701Z,2.25
2018-05-11T22:46:43.955Z,2.30
2018-05-11T22:49:12.221Z,2.33
2018-05-11T22:51:40.478Z,2.20
2018-05-11T22:54:09.493Z,2.57
2018-05-11T22:56:37.785Z,2.80
2018-05-11T22:59:06.053Z,2.73
2018-05-11T23:01:34.296Z,2.40
2018-05-11T23:04:03.321Z,2.60
2018-05-11T23:06:31.634Z,2.40
2018-05-11T23:08:59.880Z,2.27
2018-05-11T23:11:28.164Z,2.20
2018-05-11T23:13:56.417Z,2.07
2018-05-11T23:16:24.681Z,2.27
2018-05-11T23:18:52.929Z,2.13
2018-05-11T23:21:21.221Z,2.23
2018-05-11T23:23:49.464Z,3.77
2018-05-11T23:26:17.715Z,3.17
2018-05-11T23:28:45.988Z,2.70
2018-05-11T23:31:14.257Z,2.80
2018-05-11T23:33:42.516Z,2.20
2018-05-11T23:36:11.609Z,2.80
2018-05-11T23:38:40.640Z,4.07
2018-05-11T23:41:08.905Z,3.95
2018-05-11T23:43:37.159Z,2.47
2018-05-11T23:46:05.420Z,2.90
2018-05-11T23:48:34.445Z,2.10
2018-05-11T23:51:02.720Z,2.00
2018-05-11T23:53:31.004Z,2.10
2018-05-11T23:55:59.252Z,2.00
2018-05-11T23:58:27.533Z,2.00
